sensor_id;sensor_type;location;lat;lon;timestamp;P1;durP1;ratioP1;P2;durP2;ratioP2
18793;SDS011;29610;49.022;12.114;2022-12-28T00:00:13;17.80;;;10.68;;
18793;SDS011;29610;49.022;12.114;2022-12-28T00:02:42;18.42;;;9.63;;
18793;SDS011;29610;49.022;12.114;2022-12-28T00:05:11;14.98;;;8.43;;
18793;SDS011;29610;49.022;12.114;2022-12-28T00:07:40;21.13;;;9.45;;
18793;SDS011;29610;49.022;12.114;2022-12-28T00:10:10;18.80;;;9.75;;
18793;SDS011;29610;49.022;12.114;2022-12-28T00:12:38;19.08;;;9.63;;
18793;SDS011;29610;49.022;12.114;2022-12-28T00:15:07;18.67;;;10.25;;
18793;SDS011;29610;49.022;12.114;2022-12-28T00:17:37;19.83;;;10.23;;
18793;SDS011;29610;49.022;12.114;2022-12-28T00:20:05;14.90;;;9.38;;
18793;SDS011;29610;49.022;12.114;2022-12-28T00:22:35;17.85;;;9.25;;
18793;SDS011;29610;49.022;12.114;2022-12-28T00:25:04;19.85;;;9.77;;
18793;SDS011;29610;49.022;12.114;2022-12-28T00:27:36;17.58;;;9.68;;
18793;SDS011;29610;49.022;12.114;2022-12-28T00:30:05;18.25;;;9.15;;
18793;SDS011;29610;49.022;12.114;2022-12-28T00:32:35;15.93;;;9.02;;
18793;SDS011;29610;49.022;12.114;2022-12-28T00:35:04;14.25;;;8.85;;
18793;SDS011;29610;49.022;12.114;2022-12-28T00:37:33;15.88;;;9.10;;
18793;SDS011;29610;49.022;12.114;2022-12-28T00:40:03;20.45;;;9.15;;
18793;SDS011;29610;49.022;12.114;2022-12-28T00:42:33;16.67;;;9.70;;
18793;SDS011;29610;49.022;12.114;2022-12-28T00:45:04;19.17;;;10.00;;
18793;SDS011;29610;49.022;12.114;2022-12-28T00:47:36;18.83;;;10.05;;
18793;SDS011;29610;49.022;12.114;2022-12-28T00:50:05;20.23;;;10.57;;
18793;SDS011;29610;49.022;12.114;2022-12-28T00:52:35;17.17;;;9.63;;
18793;SDS011;29610;49.022;12.114;2022-12-28T00:55:04;20.30;;;9.50;;
18793;SDS011;29610;49.022;12.114;2022-12-28T00:57:33;18.40;;;10.07;;
18793;SDS011;29610;49.022;12.114;2022-12-28T01:00:05;22.88;;;9.68;;
18793;SDS011;29610;49.022;12.114;2022-12-28T01:02:38;18.58;;;11.07;;
18793;SDS011;29610;49.022;12.114;2022-12-28T01:05:06;22.88;;;9.32;;
18793;SDS011;29610;49.022;12.114;2022-12-28T01:07:36;20.98;;;10.15;;
18793;SDS011;29610;49.022;12.114;2022-12-28T01:10:05;17.05;;;9.52;;
18793;SDS011;29610;49.022;12.114;2022-12-28T01:12:38;22.85;;;9.23;;
18793;SDS011;29610;49.022;12.114;2022-12-28T01:15:11;22.45;;;10.57;;
18793;SDS011;29610;49.022;12.114;2022-12-28T01:17:40;19.73;;;9.15;;
18793;SDS011;29610;49.022;12.114;2022-12-28T01:20:09;18.00;;;8.48;;
18793;SDS011;29610;49.022;12.114;2022-12-28T01:22:38;28.45;;;8.75;;
18793;SDS011;29610;49.022;12.114;2022-12-28T01:25:07;14.98;;;9.02;;
18793;SDS011;29610;49.022;12.114;2022-12-28T01:27:36;18.65;;;9.05;;
18793;SDS011;29610;49.022;12.114;2022-12-28T01:30:05;14.05;;;8.10;;
18793;SDS011;29610;49.022;12.114;2022-12-28T01:32:38;21.63;;;8.75;;
18793;SDS011;29610;49.022;12.114;2022-12-28T01:35:07;15.88;;;9.18;;
18793;SDS011;29610;49.022;12.114;2022-12-28T01:37:36;19.15;;;9.10;;
18793;SDS011;29610;49.022;12.114;2022-12-28T01:40:05;14.98;;;8.98;;
18793;SDS011;29610;49.022;12.114;2022-12-28T01:42:40;16.67;;;8.88;;
18793;SDS011;29610;49.022;12.114;2022-12-28T01:45:16;16.55;;;9.52;;
18793;SDS011;29610;49.022;12.114;2022-12-28T01:47:52;16.10;;;9.32;;
18793;SDS011;29610;49.022;12.114;2022-12-28T01:50:26;19.15;;;9.25;;
18793;SDS011;29610;49.022;12.114;2022-12-28T01:52:58;21.17;;;10.00;;
18793;SDS011;29610;49.022;12.114;2022-12-28T01:55:32;20.15;;;10.77;;
18793;SDS011;29610;49.022;12.114;2022-12-28T01:58:04;20.70;;;9.35;;
18793;SDS011;29610;49.022;12.114;2022-12-28T02:00:39;17.83;;;9.80;;
18793;SDS011;29610;49.022;12.114;2022-12-28T02:03:10;20.63;;;9.90;;
18793;SDS011;29610;49.022;12.114;2022-12-28T02:05:45;15.23;;;9.00;;
18793;SDS011;29610;49.022;12.114;2022-12-28T02:08:23;15.50;;;9.25;;
18793;SDS011;29610;49.022;12.114;2022-12-28T02:11:01;14.95;;;7.38;;
18793;SDS011;29610;49.022;12.114;2022-12-28T02:13:30;17.58;;;9.88;;
18793;SDS011;29610;49.022;12.114;2022-12-28T02:16:02;18.30;;;9.13;;
18793;SDS011;29610;49.022;12.114;2022-12-28T02:18:32;18.20;;;9.40;;
18793;SDS011;29610;49.022;12.114;2022-12-28T02:21:08;23.50;;;9.48;;
18793;SDS011;29610;49.022;12.114;2022-12-28T02:27:07;19.65;;;9.07;;
18793;SDS011;29610;49.022;12.114;2022-12-28T02:30:05;20.58;;;9.13;;
18793;SDS011;29610;49.022;12.114;2022-12-28T02:32:47;21.48;;;9.23;;
18793;SDS011;29610;49.022;12.114;2022-12-28T02:35:28;24.17;;;10.35;;
18793;SDS011;29610;49.022;12.114;2022-12-28T02:38:09;19.48;;;10.07;;
18793;SDS011;29610;49.022;12.114;2022-12-28T02:40:44;26.17;;;8.88;;
18793;SDS011;29610;49.022;12.114;2022-12-28T02:43:21;27.23;;;8.38;;
18793;SDS011;29610;49.022;12.114;2022-12-28T02:45:52;16.58;;;9.25;;
18793;SDS011;29610;49.022;12.114;2022-12-28T02:48:41;16.23;;;9.48;;
18793;SDS011;29610;49.022;12.114;2022-12-28T02:51:36;16.17;;;9.18;;
18793;SDS011;29610;49.022;12.114;2022-12-28T02:54:36;19.00;;;9.97;;
18793;SDS011;29610;49.022;12.114;2022-12-28T02:57:51;16.75;;;9.38;;
18793;SDS011;29610;49.022;12.114;2022-12-28T03:00:42;20.80;;;9.13;;
18793;SDS011;29610;49.022;12.114;2022-12-28T03:03:31;25.42;;;9.80;;
18793;SDS011;29610;49.022;12.114;2022-12-28T03:06:19;17.33;;;9.30;;
18793;SDS011;29610;49.022;12.114;2022-12-28T03:09:18;15.30;;;8.20;;
18793;SDS011;29610;49.022;12.114;2022-12-28T03:11:57;18.25;;;9.55;;
18793;SDS011;29610;49.022;12.114;2022-12-28T03:14:37;21.55;;;9.90;;
18793;SDS011;29610;49.022;12.114;2022-12-28T03:17:13;18.83;;;9.43;;
18793;SDS011;29610;49.022;12.114;2022-12-28T03:20:05;22.48;;;10.32;;
18793;SDS011;29610;49.022;12.114;2022-12-28T03:22:58;20.70;;;10.43;;
18793;SDS011;29610;49.022;12.114;2022-12-28T03:25:50;17.40;;;10.63;;
18793;SDS011;29610;49.022;12.114;2022-12-28T03:28:40;23.03;;;11.43;;
18793;SDS011;29610;49.022;12.114;2022-12-28T03:31:32;17.30;;;10.32;;
18793;SDS011;29610;49.022;12.114;2022-12-28T03:34:10;19.77;;;11.60;;
18793;SDS011;29610;49.022;12.114;2022-12-28T03:36:47;19.45;;;10.52;;
18793;SDS011;29610;49.022;12.114;2022-12-28T03:39:31;19.77;;;11.93;;
18793;SDS011;29610;49.022;12.114;2022-12-28T03:42:11;17.92;;;11.15;;
18793;SDS011;29610;49.022;12.114;2022-12-28T03:45:04;22.60;;;12.63;;
18793;SDS011;29610;49.022;12.114;2022-12-28T03:48:04;24.45;;;11.85;;
18793;SDS011;29610;49.022;12.114;2022-12-28T03:50:42;23.33;;;12.47;;
18793;SDS011;29610;49.022;12.114;2022-12-28T03:53:16;22.58;;;12.10;;
18793;SDS011;29610;49.022;12.114;2022-12-28T03:56:03;25.40;;;14.38;;
18793;SDS011;29610;49.022;12.114;2022-12-28T03:58:38;25.45;;;13.88;;
18793;SDS011;29610;49.022;12.114;2022-12-28T04:01:07;22.95;;;12.10;;
18793;SDS011;29610;49.022;12.114;2022-12-28T04:03:38;24.67;;;14.68;;
18793;SDS011;29610;49.022;12.114;2022-12-28T04:06:09;27.92;;;14.50;;
18793;SDS011;29610;49.022;12.114;2022-12-28T04:08:42;26.40;;;13.75;;
18793;SDS011;29610;49.022;12.114;2022-12-28T04:11:12;26.88;;;14.40;;
18793;SDS011;29610;49.022;12.114;2022-12-28T04:13:46;25.60;;;14.43;;
18793;SDS011;29610;49.022;12.114;2022-12-28T04:16:16;27.65;;;14.20;;
18793;SDS011;29610;49.022;12.114;2022-12-28T04:18:45;25.63;;;13.18;;
18793;SDS011;29610;49.022;12.114;2022-12-28T04:21:15;24.50;;;14.17;;
18793;SDS011;29610;49.022;12.114;2022-12-28T04:23:44;31.13;;;15.00;;
18793;SDS011;29610;49.022;12.114;2022-12-28T04:26:19;28.80;;;15.97;;
18793;SDS011;29610;49.022;12.114;2022-12-28T04:28:51;23.50;;;13.90;;
18793;SDS011;29610;49.022;12.114;2022-12-28T04:31:35;25.57;;;14.50;;
18793;SDS011;29610;49.022;12.114;2022-12-28T04:34:10;30.43;;;14.67;;
18793;SDS011;29610;49.022;12.114;2022-12-28T04:36:46;30.63;;;13.90;;
18793;SDS011;29610;49.022;12.114;2022-12-28T04:39:18;27.70;;;15.75;;
18793;SDS011;29610;49.022;12.114;2022-12-28T04:41:46;26.20;;;14.67;;
18793;SDS011;29610;49.022;12.114;2022-12-28T04:44:15;23.52;;;14.38;;
18793;SDS011;29610;49.022;12.114;2022-12-28T04:46:44;26.67;;;13.73;;
18793;SDS011;29610;49.022;12.114;2022-12-28T04:49:12;26.52;;;15.27;;
18793;SDS011;29610;49.022;12.114;2022-12-28T04:51:41;32.97;;;15.25;;
18793;SDS011;29610;49.022;12.114;2022-12-28T04:54:12;23.95;;;14.15;;
18793;SDS011;29610;49.022;12.114;2022-12-28T04:56:41;25.60;;;15.30;;
18793;SDS011;29610;49.022;12.114;2022-12-28T04:59:09;25.25;;;13.73;;
18793;SDS011;29610;49.022;12.114;2022-12-28T05:01:38;35.08;;;16.77;;
18793;SDS011;29610;49.022;12.114;2022-12-28T05:04:07;26.23;;;14.93;;
18793;SDS011;29610;49.022;12.114;2022-12-28T05:06:36;25.80;;;14.80;;
18793;SDS011;29610;49.022;12.114;2022-12-28T05:09:05;26.52;;;14.30;;
18793;SDS011;29610;49.022;12.114;2022-12-28T05:11:35;26.52;;;15.52;;
18793;SDS011;29610;49.022;12.114;2022-12-28T05:14:03;25.75;;;12.93;;
18793;SDS011;29610;49.022;12.114;2022-12-28T05:16:32;29.00;;;16.45;;
18793;SDS011;29610;49.022;12.114;2022-12-28T05:19:00;34.72;;;15.93;;
18793;SDS011;29610;49.022;12.114;2022-12-28T05:21:29;31.23;;;15.73;;
18793;SDS011;29610;49.022;12.114;2022-12-28T05:23:58;31.42;;;16.27;;
18793;SDS011;29610;49.022;12.114;2022-12-28T05:26:27;24.83;;;14.57;;
18793;SDS011;29610;49.022;12.114;2022-12-28T05:28:58;29.20;;;15.70;;
18793;SDS011;29610;49.022;12.114;2022-12-28T05:31:26;31.10;;;17.00;;
18793;SDS011;29610;49.022;12.114;2022-12-28T05:33:55;31.77;;;16.58;;
18793;SDS011;29610;49.022;12.114;2022-12-28T05:36:24;28.42;;;16.40;;
18793;SDS011;29610;49.022;12.114;2022-12-28T05:38:54;32.65;;;17.15;;
18793;SDS011;29610;49.022;12.114;2022-12-28T05:41:24;29.77;;;16.48;;
18793;SDS011;29610;49.022;12.114;2022-12-28T05:43:55;29.17;;;16.50;;
18793;SDS011;29610;49.022;12.114;2022-12-28T05:46:27;28.88;;;16.65;;
18793;SDS011;29610;49.022;12.114;2022-12-28T05:48:59;28.97;;;14.73;;
18793;SDS011;29610;49.022;12.114;2022-12-28T05:51:30;26.50;;;16.00;;
18793;SDS011;29610;49.022;12.114;2022-12-28T05:54:00;32.50;;;16.80;;
18793;SDS011;29610;49.022;12.114;2022-12-28T05:56:30;28.63;;;16.30;;
18793;SDS011;29610;49.022;12.114;2022-12-28T05:59:01;28.00;;;16.17;;
18793;SDS011;29610;49.022;12.114;2022-12-28T06:01:33;27.53;;;15.50;;
18793;SDS011;29610;49.022;12.114;2022-12-28T06:04:11;27.30;;;15.23;;
18793;SDS011;29610;49.022;12.114;2022-12-28T06:06:46;25.30;;;14.60;;
18793;SDS011;29610;49.022;12.114;2022-12-28T06:09:16;27.45;;;15.98;;
18793;SDS011;29610;49.022;12.114;2022-12-28T06:11:44;27.37;;;15.97;;
18793;SDS011;29610;49.022;12.114;2022-12-28T06:14:14;33.67;;;15.30;;
18793;SDS011;29610;49.022;12.114;2022-12-28T06:16:43;28.60;;;16.13;;
18793;SDS011;29610;49.022;12.114;2022-12-28T06:19:12;30.07;;;15.97;;
18793;SDS011;29610;49.022;12.114;2022-12-28T06:21:41;28.53;;;14.47;;
18793;SDS011;29610;49.022;12.114;2022-12-28T06:24:10;26.33;;;15.50;;
18793;SDS011;29610;49.022;12.114;2022-12-28T06:26:40;30.00;;;15.90;;
18793;SDS011;29610;49.022;12.114;2022-12-28T06:29:09;28.40;;;15.30;;
18793;SDS011;29610;49.022;12.114;2022-12-28T06:31:40;29.83;;;14.93;;
18793;SDS011;29610;49.022;12.114;2022-12-28T06:34:13;27.97;;;14.70;;
18793;SDS011;29610;49.022;12.114;2022-12-28T06:36:43;28.77;;;16.03;;
18793;SDS011;29610;49.022;12.114;2022-12-28T06:39:14;26.80;;;15.57;;
18793;SDS011;29610;49.022;12.114;2022-12-28T06:41:42;25.37;;;15.53;;
18793;SDS011;29610;49.022;12.114;2022-12-28T06:44:12;28.83;;;16.90;;
18793;SDS011;29610;49.022;12.114;2022-12-28T06:46:43;25.83;;;15.67;;
18793;SDS011;29610;49.022;12.114;2022-12-28T06:49:11;24.80;;;15.07;;
18793;SDS011;29610;49.022;12.114;2022-12-28T06:51:40;27.37;;;15.43;;
18793;SDS011;29610;49.022;12.114;2022-12-28T06:54:09;28.37;;;16.47;;
18793;SDS011;29610;49.022;12.114;2022-12-28T06:56:38;29.70;;;16.17;;
18793;SDS011;29610;49.022;12.114;2022-12-28T06:59:07;24.83;;;15.97;;
18793;SDS011;29610;49.022;12.114;2022-12-28T07:01:36;26.20;;;16.03;;
18793;SDS011;29610;49.022;12.114;2022-12-28T07:04:11;29.33;;;15.83;;
18793;SDS011;29610;49.022;12.114;2022-12-28T07:06:40;27.97;;;16.23;;
18793;SDS011;29610;49.022;12.114;2022-12-28T07:09:11;30.20;;;15.23;;
18793;SDS011;29610;49.022;12.114;2022-12-28T07:11:43;26.63;;;15.07;;
18793;SDS011;29610;49.022;12.114;2022-12-28T07:14:12;34.70;;;15.50;;
18793;SDS011;29610;49.022;12.114;2022-12-28T07:16:41;25.57;;;15.17;;
18793;SDS011;29610;49.022;12.114;2022-12-28T07:19:09;27.57;;;15.63;;
18793;SDS011;29610;49.022;12.114;2022-12-28T07:21:39;26.67;;;15.60;;
18793;SDS011;29610;49.022;12.114;2022-12-28T07:24:08;27.03;;;14.63;;
18793;SDS011;29610;49.022;12.114;2022-12-28T07:26:37;31.63;;;17.30;;
18793;SDS011;29610;49.022;12.114;2022-12-28T07:29:06;27.00;;;16.50;;
18793;SDS011;29610;49.022;12.114;2022-12-28T07:31:37;33.10;;;15.23;;
18793;SDS011;29610;49.022;12.114;2022-12-28T07:34:14;26.97;;;16.70;;
18793;SDS011;29610;49.022;12.114;2022-12-28T07:36:42;30.90;;;15.53;;
18793;SDS011;29610;49.022;12.114;2022-12-28T07:39:11;31.30;;;15.97;;
18793;SDS011;29610;49.022;12.114;2022-12-28T07:41:41;30.00;;;17.50;;
18793;SDS011;29610;49.022;12.114;2022-12-28T07:44:09;25.07;;;14.20;;
18793;SDS011;29610;49.022;12.114;2022-12-28T07:46:38;29.30;;;15.50;;
18793;SDS011;29610;49.022;12.114;2022-12-28T07:49:07;23.73;;;13.30;;
18793;SDS011;29610;49.022;12.114;2022-12-28T07:51:38;30.33;;;16.03;;
18793;SDS011;29610;49.022;12.114;2022-12-28T07:54:06;29.87;;;15.70;;
18793;SDS011;29610;49.022;12.114;2022-12-28T07:56:35;25.67;;;14.73;;
18793;SDS011;29610;49.022;12.114;2022-12-28T07:59:03;29.10;;;16.05;;
18793;SDS011;29610;49.022;12.114;2022-12-28T08:01:34;24.27;;;14.73;;
18793;SDS011;29610;49.022;12.114;2022-12-28T08:04:05;32.25;;;17.60;;
18793;SDS011;29610;49.022;12.114;2022-12-28T08:06:40;25.03;;;14.10;;
18793;SDS011;29610;49.022;12.114;2022-12-28T08:09:11;23.90;;;14.40;;
18793;SDS011;29610;49.022;12.114;2022-12-28T08:11:42;26.03;;;14.50;;
18793;SDS011;29610;49.022;12.114;2022-12-28T08:14:12;25.93;;;14.27;;
18793;SDS011;29610;49.022;12.114;2022-12-28T08:16:44;27.50;;;15.93;;
18793;SDS011;29610;49.022;12.114;2022-12-28T08:19:12;26.67;;;14.50;;
18793;SDS011;29610;49.022;12.114;2022-12-28T08:21:43;22.83;;;13.87;;
18793;SDS011;29610;49.022;12.114;2022-12-28T08:24:13;33.97;;;15.80;;
18793;SDS011;29610;49.022;12.114;2022-12-28T08:26:44;27.90;;;15.53;;
18793;SDS011;29610;49.022;12.114;2022-12-28T08:29:15;30.73;;;15.27;;
18793;SDS011;29610;49.022;12.114;2022-12-28T08:31:47;31.30;;;16.27;;
18793;SDS011;29610;49.022;12.114;2022-12-28T08:34:17;28.80;;;16.43;;
18793;SDS011;29610;49.022;12.114;2022-12-28T08:36:54;25.63;;;13.90;;
18793;SDS011;29610;49.022;12.114;2022-12-28T08:39:23;24.27;;;13.50;;
18793;SDS011;29610;49.022;12.114;2022-12-28T08:41:52;26.77;;;15.27;;
18793;SDS011;29610;49.022;12.114;2022-12-28T08:44:20;26.00;;;12.80;;
18793;SDS011;29610;49.022;12.114;2022-12-28T08:46:49;33.50;;;14.77;;
18793;SDS011;29610;49.022;12.114;2022-12-28T08:49:18;21.60;;;13.00;;
18793;SDS011;29610;49.022;12.114;2022-12-28T08:51:46;27.83;;;13.80;;
18793;SDS011;29610;49.022;12.114;2022-12-28T08:54:17;24.83;;;12.87;;
18793;SDS011;29610;49.022;12.114;2022-12-28T08:56:45;21.40;;;13.97;;
18793;SDS011;29610;49.022;12.114;2022-12-28T08:59:16;27.50;;;14.07;;
18793;SDS011;29610;49.022;12.114;2022-12-28T09:01:45;21.63;;;13.10;;
18793;SDS011;29610;49.022;12.114;2022-12-28T09:04:15;24.50;;;13.50;;
18793;SDS011;29610;49.022;12.114;2022-12-28T09:06:48;26.67;;;13.50;;
18793;SDS011;29610;49.022;12.114;2022-12-28T09:09:18;25.13;;;13.50;;
18793;SDS011;29610;49.022;12.114;2022-12-28T09:11:47;23.43;;;14.10;;
18793;SDS011;29610;49.022;12.114;2022-12-28T09:14:16;24.77;;;13.97;;
18793;SDS011;29610;49.022;12.114;2022-12-28T09:16:50;21.27;;;12.33;;
18793;SDS011;29610;49.022;12.114;2022-12-28T09:19:20;21.90;;;13.20;;
18793;SDS011;29610;49.022;12.114;2022-12-28T09:21:49;23.60;;;13.40;;
18793;SDS011;29610;49.022;12.114;2022-12-28T09:24:22;26.40;;;12.93;;
18793;SDS011;29610;49.022;12.114;2022-12-28T09:26:50;22.60;;;13.70;;
18793;SDS011;29610;49.022;12.114;2022-12-28T09:29:20;21.30;;;12.13;;
18793;SDS011;29610;49.022;12.114;2022-12-28T09:31:49;19.57;;;12.00;;
18793;SDS011;29610;49.022;12.114;2022-12-28T09:34:18;20.50;;;11.40;;
18793;SDS011;29610;49.022;12.114;2022-12-28T09:37:04;19.77;;;11.50;;
18793;SDS011;29610;49.022;12.114;2022-12-28T09:39:35;22.23;;;12.63;;
18793;SDS011;29610;49.022;12.114;2022-12-28T09:42:05;20.90;;;13.20;;
18793;SDS011;29610;49.022;12.114;2022-12-28T09:44:48;18.00;;;11.40;;
18793;SDS011;29610;49.022;12.114;2022-12-28T09:47:31;26.60;;;12.90;;
18793;SDS011;29610;49.022;12.114;2022-12-28T09:50:25;25.60;;;11.60;;
18793;SDS011;29610;49.022;12.114;2022-12-28T09:53:03;21.00;;;10.70;;
18793;SDS011;29610;49.022;12.114;2022-12-28T09:55:59;20.60;;;10.60;;
18793;SDS011;29610;49.022;12.114;2022-12-28T09:58:35;20.17;;;10.90;;
18793;SDS011;29610;49.022;12.114;2022-12-28T10:01:13;23.90;;;12.43;;
18793;SDS011;29610;49.022;12.114;2022-12-28T10:03:45;19.00;;;11.27;;
18793;SDS011;29610;49.022;12.114;2022-12-28T10:06:15;20.73;;;11.47;;
18793;SDS011;29610;49.022;12.114;2022-12-28T10:08:51;21.93;;;12.30;;
18793;SDS011;29610;49.022;12.114;2022-12-28T10:11:26;24.40;;;11.40;;
18793;SDS011;29610;49.022;12.114;2022-12-28T10:14:00;22.37;;;11.40;;
18793;SDS011;29610;49.022;12.114;2022-12-28T10:16:47;19.93;;;11.63;;
18793;SDS011;29610;49.022;12.114;2022-12-28T10:19:16;22.10;;;12.30;;
18793;SDS011;29610;49.022;12.114;2022-12-28T10:21:51;21.50;;;11.93;;
18793;SDS011;29610;49.022;12.114;2022-12-28T10:24:26;20.40;;;11.40;;
18793;SDS011;29610;49.022;12.114;2022-12-28T10:27:02;19.30;;;10.03;;
18793;SDS011;29610;49.022;12.114;2022-12-28T10:29:33;18.10;;;11.17;;
18793;SDS011;29610;49.022;12.114;2022-12-28T10:32:03;20.20;;;12.63;;
18793;SDS011;29610;49.022;12.114;2022-12-28T10:34:35;16.60;;;10.60;;
18793;SDS011;29610;49.022;12.114;2022-12-28T10:37:12;15.10;;;8.83;;
18793;SDS011;29610;49.022;12.114;2022-12-28T10:39:47;17.80;;;10.83;;
18793;SDS011;29610;49.022;12.114;2022-12-28T10:42:22;18.63;;;11.30;;
18793;SDS011;29610;49.022;12.114;2022-12-28T10:44:56;16.47;;;10.43;;
18793;SDS011;29610;49.022;12.114;2022-12-28T10:47:33;19.40;;;10.47;;
18793;SDS011;29610;49.022;12.114;2022-12-28T10:53:15;20.90;;;10.33;;
18793;SDS011;29610;49.022;12.114;2022-12-28T10:55:53;18.93;;;10.90;;
18793;SDS011;29610;49.022;12.114;2022-12-28T10:58:34;17.27;;;10.90;;
18793;SDS011;29610;49.022;12.114;2022-12-28T11:01:04;17.83;;;10.53;;
18793;SDS011;29610;49.022;12.114;2022-12-28T11:03:45;17.27;;;10.90;;
18793;SDS011;29610;49.022;12.114;2022-12-28T11:06:28;16.83;;;9.80;;
18793;SDS011;29610;49.022;12.114;2022-12-28T11:09:00;17.13;;;9.90;;
18793;SDS011;29610;49.022;12.114;2022-12-28T11:11:43;17.47;;;9.63;;
18793;SDS011;29610;49.022;12.114;2022-12-28T11:14:20;15.53;;;8.70;;
18793;SDS011;29610;49.022;12.114;2022-12-28T11:17:03;15.20;;;8.70;;
18793;SDS011;29610;49.022;12.114;2022-12-28T11:19:43;16.03;;;8.80;;
18793;SDS011;29610;49.022;12.114;2022-12-28T11:22:14;18.40;;;9.57;;
18793;SDS011;29610;49.022;12.114;2022-12-28T11:24:51;15.13;;;8.67;;
18793;SDS011;29610;49.022;12.114;2022-12-28T11:27:20;14.60;;;8.60;;
18793;SDS011;29610;49.022;12.114;2022-12-28T11:29:52;13.30;;;7.60;;
18793;SDS011;29610;49.022;12.114;2022-12-28T11:32:23;15.17;;;8.47;;
18793;SDS011;29610;49.022;12.114;2022-12-28T11:34:57;15.73;;;8.63;;
18793;SDS011;29610;49.022;12.114;2022-12-28T11:37:27;14.33;;;7.67;;
18793;SDS011;29610;49.022;12.114;2022-12-28T11:39:55;15.03;;;6.90;;
18793;SDS011;29610;49.022;12.114;2022-12-28T11:48:38;13.83;;;7.30;;
18793;SDS011;29610;49.022;12.114;2022-12-28T11:51:17;14.50;;;6.87;;
18793;SDS011;29610;49.022;12.114;2022-12-28T11:53:49;13.57;;;7.27;;
18793;SDS011;29610;49.022;12.114;2022-12-28T11:56:26;13.30;;;6.77;;
18793;SDS011;29610;49.022;12.114;2022-12-28T11:59:26;15.60;;;6.13;;
18793;SDS011;29610;49.022;12.114;2022-12-28T12:01:58;12.07;;;5.80;;
18793;SDS011;29610;49.022;12.114;2022-12-28T12:04:32;12.30;;;5.20;;
18793;SDS011;29610;49.022;12.114;2022-12-28T12:10:12;11.47;;;6.27;;
18793;SDS011;29610;49.022;12.114;2022-12-28T12:13:31;11.80;;;6.20;;
18793;SDS011;29610;49.022;12.114;2022-12-28T12:16:18;14.47;;;5.67;;
18793;SDS011;29610;49.022;12.114;2022-12-28T12:18:53;12.63;;;5.50;;
18793;SDS011;29610;49.022;12.114;2022-12-28T12:21:28;13.10;;;5.20;;
18793;SDS011;29610;49.022;12.114;2022-12-28T12:24:16;12.80;;;6.20;;
18793;SDS011;29610;49.022;12.114;2022-12-28T12:26:53;12.03;;;5.27;;
18793;SDS011;29610;49.022;12.114;2022-12-28T12:29:38;15.00;;;6.00;;
18793;SDS011;29610;49.022;12.114;2022-12-28T12:32:12;12.97;;;5.40;;
18793;SDS011;29610;49.022;12.114;2022-12-28T12:34:48;10.50;;;5.53;;
18793;SDS011;29610;49.022;12.114;2022-12-28T12:37:30;12.63;;;5.20;;
18793;SDS011;29610;49.022;12.114;2022-12-28T12:40:15;15.63;;;7.70;;
18793;SDS011;29610;49.022;12.114;2022-12-28T12:43:18;18.23;;;7.00;;
18793;SDS011;29610;49.022;12.114;2022-12-28T12:46:12;12.20;;;5.77;;
18793;SDS011;29610;49.022;12.114;2022-12-28T12:49:34;14.23;;;6.90;;
18793;SDS011;29610;49.022;12.114;2022-12-28T12:52:28;12.07;;;6.33;;
18793;SDS011;29610;49.022;12.114;2022-12-28T12:55:16;16.87;;;6.50;;
18793;SDS011;29610;49.022;12.114;2022-12-28T12:57:58;13.40;;;7.10;;
18793;SDS011;29610;49.022;12.114;2022-12-28T13:00:39;14.27;;;6.43;;
18793;SDS011;29610;49.022;12.114;2022-12-28T13:03:27;11.27;;;5.50;;
18793;SDS011;29610;49.022;12.114;2022-12-28T13:06:05;13.53;;;6.03;;
18793;SDS011;29610;49.022;12.114;2022-12-28T13:08:36;17.47;;;5.90;;
18793;SDS011;29610;49.022;12.114;2022-12-28T13:11:14;11.73;;;5.57;;
18793;SDS011;29610;49.022;12.114;2022-12-28T13:13:46;12.67;;;5.67;;
18793;SDS011;29610;49.022;12.114;2022-12-28T13:16:19;11.30;;;5.70;;
18793;SDS011;29610;49.022;12.114;2022-12-28T13:18:54;14.00;;;6.67;;
18793;SDS011;29610;49.022;12.114;2022-12-28T13:21:26;12.03;;;5.80;;
18793;SDS011;29610;49.022;12.114;2022-12-28T13:23:57;12.33;;;5.33;;
18793;SDS011;29610;49.022;12.114;2022-12-28T13:26:26;11.40;;;5.53;;
18793;SDS011;29610;49.022;12.114;2022-12-28T13:28:57;11.27;;;5.10;;
18793;SDS011;29610;49.022;12.114;2022-12-28T13:31:30;12.83;;;5.67;;
18793;SDS011;29610;49.022;12.114;2022-12-28T13:34:04;11.80;;;5.47;;
18793;SDS011;29610;49.022;12.114;2022-12-28T13:36:47;11.27;;;5.50;;
18793;SDS011;29610;49.022;12.114;2022-12-28T13:39:19;11.27;;;5.20;;
18793;SDS011;29610;49.022;12.114;2022-12-28T13:41:51;17.93;;;5.70;;
18793;SDS011;29610;49.022;12.114;2022-12-28T13:44:24;21.37;;;5.17;;
18793;SDS011;29610;49.022;12.114;2022-12-28T13:47:03;10.90;;;5.07;;
18793;SDS011;29610;49.022;12.114;2022-12-28T13:49:40;11.27;;;5.00;;
18793;SDS011;29610;49.022;12.114;2022-12-28T13:52:16;15.00;;;6.97;;
18793;SDS011;29610;49.022;12.114;2022-12-28T13:54:51;11.87;;;5.20;;
18793;SDS011;29610;49.022;12.114;2022-12-28T13:57:24;11.83;;;5.10;;
18793;SDS011;29610;49.022;12.114;2022-12-28T14:00:15;12.10;;;5.40;;
18793;SDS011;29610;49.022;12.114;2022-12-28T14:02:46;9.93;;;4.90;;
18793;SDS011;29610;49.022;12.114;2022-12-28T14:05:20;13.73;;;5.30;;
18793;SDS011;29610;49.022;12.114;2022-12-28T14:07:53;12.50;;;5.97;;
18793;SDS011;29610;49.022;12.114;2022-12-28T14:10:25;10.80;;;4.97;;
18793;SDS011;29610;49.022;12.114;2022-12-28T14:12:55;10.13;;;4.80;;
18793;SDS011;29610;49.022;12.114;2022-12-28T14:15:26;11.03;;;5.33;;
18793;SDS011;29610;49.022;12.114;2022-12-28T14:17:55;12.10;;;6.00;;
18793;SDS011;29610;49.022;12.114;2022-12-28T14:20:26;14.37;;;5.70;;
18793;SDS011;29610;49.022;12.114;2022-12-28T14:23:06;10.70;;;5.17;;
18793;SDS011;29610;49.022;12.114;2022-12-28T14:25:46;13.20;;;6.30;;
18793;SDS011;29610;49.022;12.114;2022-12-28T14:28:17;11.27;;;5.20;;
18793;SDS011;29610;49.022;12.114;2022-12-28T14:30:53;12.03;;;5.23;;
18793;SDS011;29610;49.022;12.114;2022-12-28T14:33:23;25.77;;;8.63;;
18793;SDS011;29610;49.022;12.114;2022-12-28T14:35:57;16.63;;;6.30;;
18793;SDS011;29610;49.022;12.114;2022-12-28T14:38:30;11.43;;;5.80;;
18793;SDS011;29610;49.022;12.114;2022-12-28T14:41:02;11.27;;;6.23;;
18793;SDS011;29610;49.022;12.114;2022-12-28T14:43:32;15.93;;;6.60;;
18793;SDS011;29610;49.022;12.114;2022-12-28T14:49:00;11.87;;;6.07;;
18793;SDS011;29610;49.022;12.114;2022-12-28T14:55:20;11.57;;;5.57;;
18793;SDS011;29610;49.022;12.114;2022-12-28T14:57:57;10.07;;;5.30;;
18793;SDS011;29610;49.022;12.114;2022-12-28T15:00:32;13.17;;;6.57;;
18793;SDS011;29610;49.022;12.114;2022-12-28T15:03:14;12.90;;;6.40;;
18793;SDS011;29610;49.022;12.114;2022-12-28T15:05:47;13.10;;;5.90;;
18793;SDS011;29610;49.022;12.114;2022-12-28T15:08:19;16.27;;;7.00;;
18793;SDS011;29610;49.022;12.114;2022-12-28T15:10:50;17.33;;;7.80;;
18793;SDS011;29610;49.022;12.114;2022-12-28T15:13:21;15.23;;;6.60;;
18793;SDS011;29610;49.022;12.114;2022-12-28T15:15:51;14.80;;;7.20;;